Time;durP1;ratioP1;P1;durP2;ratioP2;P2;SDS_P1;SDS_P2;PMS_P1;PMS_P2;Temp;Humidity;BMP_temperature;BMP_pressure;BME280_temperature;BME280_humidity;BME280_pressure;Samples;Min_cycle;Max_cycle;Signal;HPM_P1;HPM_P2
2024/02/17 00:01:50;;;;;;;;;;;18.30;48.80;;;;;;1594052;73;596;-71
2024/02/17 00:03:52;;;;;;;;;;;18.30;48.70;;;;;;1597609;73;674;-70
2024/02/17 00:05:54;;;;;;;;;;;18.30;48.70;;;;;;1591371;73;677;-73
2024/02/17 00:07:56;;;;;;;;;;;18.30;48.70;;;;;;1594021;73;1919;-71
2024/02/17 00:09:58;;;;;;;;;;;18.30;48.70;;;;;;1595235;73;1540;-72
2024/02/17 00:12:00;;;;;;;;;;;18.30;48.70;;;;;;1593130;73;732;-73
2024/02/17 00:14:01;;;;;;;;;;;18.30;48.60;;;;;;1595280;73;706;-75
2024/02/17 00:16:04;;;;;;;;;;;18.30;48.60;;;;;;1594443;73;701;-72
2024/02/17 00:18:06;;;;;;;;;;;18.30;48.70;;;;;;1594684;73;683;-72
2024/02/17 00:20:09;;;;;;;;;;;18.30;48.70;;;;;;1593835;73;1178;-72
2024/02/17 00:22:11;;;;;;;;;;;18.20;48.60;;;;;;1595024;73;528;-73
2024/02/17 00:24:13;;;;;;;;;;;18.20;48.60;;;;;;1594678;73;678;-73
2024/02/17 00:26:18;;;;;;;;;;;18.30;48.60;;;;;;1594658;73;616;-73
2024/02/17 00:28:25;;;;;;;;;;;18.30;48.60;;;;;;1591619;73;2262;-69
2024/02/17 00:30:23;;;;;;;;;;;18.30;48.60;;;;;;1592128;73;1507;-74
2024/02/17 00:32:25;;;;;;;;;;;18.30;48.60;;;;;;1595465;73;685;-71
2024/02/17 00:34:27;;;;;;;;;;;18.30;48.60;;;;;;1588223;73;753;-74
2024/02/17 00:36:28;;;;;;;;;;;18.30;48.60;;;;;;1592619;73;671;-73
2024/02/17 00:38:30;;;;;;;;;;;18.30;48.60;;;;;;1594472;73;1160;-72
2024/02/17 00:40:33;;;;;;;;;;;18.20;48.50;;;;;;1592936;73;669;-71
2024/02/17 00:42:35;;;;;;;;;;;18.40;48.60;;;;;;1593536;73;671;-72
2024/02/17 00:44:37;;;;;;;;;;;18.30;48.60;;;;;;1594282;73;919;-72
2024/02/17 00:46:40;;;;;;;;;;;18.30;48.60;;;;;;1591586;73;701;-72
2024/02/17 00:48:41;;;;;;;;;;;18.30;48.60;;;;;;1602481;72;1920;-72
2024/02/17 00:50:43;;;;;;;;;;;18.30;48.60;;;;;;1595735;73;648;-73
2024/02/17 00:52:45;;;;;;;;;;;18.30;48.60;;;;;;1593418;73;668;-72
2024/02/17 00:54:47;;;;;;;;;;;18.30;48.60;;;;;;1594089;73;639;-75
2024/02/17 00:56:50;;;;;;;;;;;18.30;48.60;;;;;;1596726;73;850;-72
2024/02/17 00:58:52;;;;;;;;;;;18.30;48.60;;;;;;1592084;73;1108;-71
2024/02/17 01:00:54;;;;;;;;;;;18.30;48.60;;;;;;1591908;73;563;-69
2024/02/17 01:02:56;;;;;;;;;;;18.30;48.60;;;;;;1593449;73;712;-72
2024/02/17 01:04:58;;;;;;;;;;;18.30;48.60;;;;;;1593784;73;606;-72
2024/02/17 01:07:00;;;;;;;;;;;18.20;48.50;;;;;;1591889;73;1373;-69
2024/02/17 01:09:02;;;;;;;;;;;18.30;48.60;;;;;;1589978;73;1933;-75
2024/02/17 01:11:03;;;;;;;;;;;18.30;48.60;;;;;;1595644;73;746;-72
2024/02/17 01:13:07;;;;;;;;;;;18.20;48.60;;;;;;1595323;73;673;-74
2024/02/17 01:15:09;;;;;;;;;;;18.20;48.50;;;;;;1594043;73;751;-71
2024/02/17 01:17:11;;;;;;;;;;;18.30;48.60;;;;;;1594399;73;689;-71
2024/02/17 01:19:13;;;;;;;;;;;18.20;48.60;;;;;;1598168;73;1180;-71
2024/02/17 01:21:15;;;;;;;;;;;18.30;48.60;;;;;;1596238;73;686;-74
2024/02/17 01:23:17;;;;;;;;;;;18.30;48.60;;;;;;1594225;73;755;-70
2024/02/17 01:25:20;;;;;;;;;;;18.30;48.60;;;;;;1593364;73;676;-73
2024/02/17 01:27:22;;;;;;;;;;;18.30;48.60;;;;;;1594135;73;739;-71
2024/02/17 01:29:24;;;;;;;;;;;18.30;48.50;;;;;;1595634;73;1945;-71
2024/02/17 01:31:26;;;;;;;;;;;18.30;48.50;;;;;;1594441;73;672;-73
2024/02/17 01:33:28;;;;;;;;;;;18.30;48.50;;;;;;1594427;73;723;-73
2024/02/17 01:35:30;;;;;;;;;;;18.30;48.60;;;;;;1592289;73;616;-73
2024/02/17 01:37:33;;;;;;;;;;;18.30;48.50;;;;;;1593224;73;700;-73
2024/02/17 01:39:35;;;;;;;;;;;18.30;48.50;;;;;;1597498;73;1116;-72
2024/02/17 01:41:37;;;;;;;;;;;18.20;48.50;;;;;;1594704;73;757;-71
2024/02/17 01:43:39;;;;;;;;;;;18.30;48.60;;;;;;1593715;73;804;-72
2024/02/17 01:45:41;;;;;;;;;;;18.30;48.60;;;;;;1595648;73;845;-73
2024/02/17 01:47:43;;;;;;;;;;;18.30;48.60;;;;;;1584956;73;1932;-72
2024/02/17 01:49:44;;;;;;;;;;;18.30;48.50;;;;;;1595146;73;1098;-72
2024/02/17 01:51:46;;;;;;;;;;;18.30;48.50;;;;;;1594858;73;652;-75
2024/02/17 01:53:48;;;;;;;;;;;18.30;48.40;;;;;;1594873;73;751;-72
2024/02/17 01:55:50;;;;;;;;;;;18.30;48.50;;;;;;1594441;73;771;-72
2024/02/17 01:57:52;;;;;;;;;;;18.20;48.40;;;;;;1594136;73;673;-70
2024/02/17 01:59:54;;;;;;;;;;;18.30;48.40;;;;;;1595351;73;1120;-72
2024/02/17 02:01:56;;;;;;;;;;;18.20;48.40;;;;;;1594024;73;1744;-73
2024/02/17 02:03:58;;;;;;;;;;;18.30;48.40;;;;;;1597078;73;675;-70
2024/02/17 02:06:00;;;;;;;;;;;18.20;48.40;;;;;;1594085;73;674;-73
2024/02/17 02:08:02;;;;;;;;;;;18.20;48.40;;;;;;1593886;73;1925;-75
2024/02/17 02:10:05;;;;;;;;;;;18.30;48.40;;;;;;1595301;73;1075;-73
2024/02/17 02:12:07;;;;;;;;;;;18.30;48.40;;;;;;1593958;73;671;-73
2024/02/17 02:14:13;;;;;;;;;;;18.20;48.30;;;;;;1593391;73;704;-71
2024/02/17 02:16:19;;;;;;;;;;;18.30;48.40;;;;;;1594386;73;1163;-76
2024/02/17 02:18:21;;;;;;;;;;;18.20;48.40;;;;;;1589743;73;1141;-71
2024/02/17 02:20:24;;;;;;;;;;;18.30;48.40;;;;;;1600156;73;712;-73
2024/02/17 02:22:26;;;;;;;;;;;18.30;48.40;;;;;;1593856;73;759;-73
2024/02/17 02:24:28;;;;;;;;;;;18.30;48.40;;;;;;1594462;73;636;-73
2024/02/17 02:26:30;;;;;;;;;;;18.30;48.40;;;;;;1592462;73;642;-71
2024/02/17 02:28:32;;;;;;;;;;;18.30;48.50;;;;;;1593647;73;1940;-74
2024/02/17 02:30:34;;;;;;;;;;;18.20;48.40;;;;;;1592495;73;948;-71
2024/02/17 02:32:36;;;;;;;;;;;18.30;48.50;;;;;;1594197;73;706;-72
2024/02/17 02:34:38;;;;;;;;;;;18.30;48.40;;;;;;1595074;73;624;-72
2024/02/17 02:36:41;;;;;;;;;;;18.20;48.40;;;;;;1593517;73;605;-73
2024/02/17 02:38:43;;;;;;;;;;;18.30;48.40;;;;;;1591238;73;1118;-72
2024/02/17 02:40:45;;;;;;;;;;;18.30;48.40;;;;;;1593687;73;861;-75
2024/02/17 02:42:47;;;;;;;;;;;18.30;48.40;;;;;;1593569;73;636;-74
2024/02/17 02:44:49;;;;;;;;;;;18.40;48.40;;;;;;1594395;73;728;-72
2024/02/17 02:46:51;;;;;;;;;;;18.20;48.20;;;;;;1593858;73;786;-73
2024/02/17 02:48:53;;;;;;;;;;;18.30;48.40;;;;;;1601047;72;1939;-73
2024/02/17 02:50:55;;;;;;;;;;;18.30;48.30;;;;;;1597710;73;804;-71
2024/02/17 02:52:57;;;;;;;;;;;18.30;48.40;;;;;;1595472;73;702;-75
2024/02/17 02:54:58;;;;;;;;;;;18.30;48.40;;;;;;1594153;73;696;-71
2024/02/17 02:57:00;;;;;;;;;;;18.20;48.20;;;;;;1605253;73;812;-72
2024/02/17 02:59:02;;;;;;;;;;;18.30;48.40;;;;;;1593516;73;1629;-72
2024/02/17 03:01:04;;;;;;;;;;;18.30;48.40;;;;;;1594700;73;758;-72
2024/02/17 03:03:06;;;;;;;;;;;18.30;48.30;;;;;;1593872;73;666;-72
2024/02/17 03:05:08;;;;;;;;;;;18.30;48.40;;;;;;1594575;73;688;-72
2024/02/17 03:07:10;;;;;;;;;;;18.30;48.40;;;;;;1593202;73;575;-72
2024/02/17 03:09:12;;;;;;;;;;;18.30;48.30;;;;;;1600708;72;1948;-72
2024/02/17 03:11:14;;;;;;;;;;;18.30;48.40;;;;;;1594619;73;802;-73
2024/02/17 03:13:16;;;;;;;;;;;18.30;48.30;;;;;;1593457;73;769;-69
2024/02/17 03:15:18;;;;;;;;;;;18.20;48.10;;;;;;1593291;73;700;-72
2024/02/17 03:17:21;;;;;;;;;;;18.30;48.30;;;;;;1595812;73;740;-74
2024/02/17 03:19:23;;;;;;;;;;;18.30;48.30;;;;;;1593473;73;1180;-72
2024/02/17 03:21:25;;;;;;;;;;;18.30;48.30;;;;;;1591985;73;683;-72
2024/02/17 03:23:27;;;;;;;;;;;18.30;48.30;;;;;;1593619;73;664;-71
2024/02/17 03:25:28;;;;;;;;;;;18.20;48.30;;;;;;1591757;73;654;-72
2024/02/17 03:27:30;;;;;;;;;;;18.30;48.40;;;;;;1593374;74;715;-73
2024/02/17 03:29:32;;;;;;;;;;;18.30;48.30;;;;;;1601525;73;1941;-73
2024/02/17 03:31:34;;;;;;;;;;;18.30;48.40;;;;;;1594043;73;669;-71
2024/02/17 03:33:37;;;;;;;;;;;18.30;48.30;;;;;;1592301;73;684;-73
2024/02/17 03:35:41;;;;;;;;;;;18.30;48.30;;;;;;1593313;73;722;-71
2024/02/17 03:37:42;;;;;;;;;;;18.20;48.30;;;;;;1594314;73;700;-72
2024/02/17 03:39:45;;;;;;;;;;;18.30;48.30;;;;;;1593899;73;1096;-73
2024/02/17 03:41:48;;;;;;;;;;;18.30;48.30;;;;;;1594190;73;672;-70
2024/02/17 03:43:50;;;;;;;;;;;18.30;48.30;;;;;;1594599;73;703;-72
2024/02/17 03:45:51;;;;;;;;;;;18.30;48.30;;;;;;1590000;73;686;-73
2024/02/17 03:47:53;;;;;;;;;;;18.30;48.20;;;;;;1592917;73;739;-73
2024/02/17 03:49:55;;;;;;;;;;;18.30;48.30;;;;;;1592960;73;1959;-73
2024/02/17 03:51:57;;;;;;;;;;;18.30;48.30;;;;;;1598940;73;649;-75
2024/02/17 03:53:59;;;;;;;;;;;18.30;48.40;;;;;;1593829;73;1237;-75
2024/02/17 03:56:01;;;;;;;;;;;18.20;48.20;;;;;;1588549;73;684;-69
2024/02/17 03:58:03;;;;;;;;;;;18.30;48.20;;;;;;1594428;73;792;-74
2024/02/17 04:00:06;;;;;;;;;;;18.30;48.20;;;;;;1593815;73;1095;-70
2024/02/17 04:02:08;;;;;;;;;;;18.30;48.30;;;;;;1593614;73;655;-71
2024/02/17 04:04:10;;;;;;;;;;;18.30;48.30;;;;;;1597051;73;667;-71
2024/02/17 04:06:12;;;;;;;;;;;18.30;48.30;;;;;;1594067;73;657;-72
2024/02/17 04:08:14;;;;;;;;;;;18.30;48.20;;;;;;1595018;73;1111;-72
2024/02/17 04:10:16;;;;;;;;;;;18.30;48.20;;;;;;1596783;73;1948;-73
2024/02/17 04:12:18;;;;;;;;;;;18.30;48.30;;;;;;1592314;73;681;-72
2024/02/17 04:14:19;;;;;;;;;;;18.30;48.30;;;;;;1594943;73;675;-72
2024/02/17 04:16:21;;;;;;;;;;;18.30;48.30;;;;;;1594756;73;728;-74
2024/02/17 04:18:23;;;;;;;;;;;18.30;48.20;;;;;;1593478;73;1152;-70
2024/02/17 04:20:25;;;;;;;;;;;18.20;48.10;;;;;;1598371;73;684;-71
2024/02/17 04:22:27;;;;;;;;;;;18.30;48.20;;;;;;1590463;73;646;-72
2024/02/17 04:24:29;;;;;;;;;;;18.30;48.20;;;;;;1591726;73;664;-73
2024/02/17 04:26:31;;;;;;;;;;;18.30;48.30;;;;;;1597442;73;781;-73
2024/02/17 04:28:35;;;;;;;;;;;18.20;48.20;;;;;;1591799;73;1946;-73
2024/02/17 04:30:36;;;;;;;;;;;18.20;48.10;;;;;;1594955;73;773;-73
2024/02/17 04:32:38;;;;;;;;;;;18.30;48.20;;;;;;1594932;73;743;-71
2024/02/17 04:34:40;;;;;;;;;;;18.30;48.20;;;;;;1594803;73;683;-73
2024/02/17 04:36:42;;;;;;;;;;;18.30;48.20;;;;;;1583078;73;633;-73
2024/02/17 04:38:44;;;;;;;;;;;18.30;48.10;;;;;;1592130;73;1150;-75
2024/02/17 04:40:46;;;;;;;;;;;18.30;48.10;;;;;;1598824;73;659;-70
2024/02/17 04:42:48;;;;;;;;;;;18.30;48.20;;;;;;1594115;73;687;-73
2024/02/17 04:44:50;;;;;;;;;;;18.20;48.10;;;;;;1595628;74;685;-72
2024/02/17 04:46:52;;;;;;;;;;;18.30;48.20;;;;;;1594471;73;757;-73
2024/02/17 04:48:53;;;;;;;;;;;18.30;48.20;;;;;;1592785;73;1933;-73
2024/02/17 04:50:55;;;;;;;;;;;18.30;48.20;;;;;;1596443;73;1322;-73
2024/02/17 04:52:57;;;;;;;;;;;18.30;48.20;;;;;;1594383;73;634;-73
2024/02/17 04:54:59;;;;;;;;;;;18.20;48.10;;;;;;1594170;73;751;-71
2024/02/17 04:57:01;;;;;;;;;;;18.30;48.20;;;;;;1593521;73;664;-72
2024/02/17 04:59:03;;;;;;;;;;;18.30;48.20;;;;;;1598146;73;1148;-69
2024/02/17 05:01:05;;;;;;;;;;;18.30;48.20;;;;;;1595147;73;750;-71
2024/02/17 05:03:07;;;;;;;;;;;18.30;48.10;;;;;;1597174;73;722;-73
2024/02/17 05:05:09;;;;;;;;;;;18.30;48.10;;;;;;1597165;73;680;-71
2024/02/17 05:07:12;;;;;;;;;;;18.30;48.10;;;;;;1593481;73;690;-71
2024/02/17 05:09:14;;;;;;;;;;;18.30;48.10;;;;;;1600065;72;1932;-73
2024/02/17 05:11:20;;;;;;;;;;;18.30;48.10;;;;;;1595029;73;702;-72
2024/02/17 05:13:22;;;;;;;;;;;18.30;48.10;;;;;;1593325;73;701;-73
2024/02/17 05:15:23;;;;;;;;;;;18.20;48.10;;;;;;1594899;73;811;-73
2024/02/17 05:17:26;;;;;;;;;;;18.30;48.10;;;;;;1596384;73;798;-73
2024/02/17 05:19:28;;;;;;;;;;;18.30;48.10;;;;;;1598447;72;1133;-72
2024/02/17 05:21:29;;;;;;;;;;;18.30;48.10;;;;;;1591763;73;667;-73
2024/02/17 05:23:31;;;;;;;;;;;18.30;48.10;;;;;;1595136;73;670;-74
2024/02/17 05:25:33;;;;;;;;;;;18.30;48.10;;;;;;1592822;73;633;-74
2024/02/17 05:27:35;;;;;;;;;;;18.30;48.10;;;;;;1591941;73;722;-75
2024/02/17 05:29:38;;;;;;;;;;;18.30;48.10;;;;;;1595820;73;1931;-73
2024/02/17 05:31:40;;;;;;;;;;;18.30;48.10;;;;;;1594575;73;696;-73
2024/02/17 05:33:42;;;;;;;;;;;18.30;48.10;;;;;;1591756;73;705;-72
2024/02/17 05:35:45;;;;;;;;;;;18.20;48.10;;;;;;1594124;73;776;-74
2024/02/17 05:37:47;;;;;;;;;;;18.30;48.10;;;;;;1592597;73;624;-74
2024/02/17 05:39:49;;;;;;;;;;;18.30;48.10;;;;;;1594573;73;1119;-72
2024/02/17 05:41:51;;;;;;;;;;;18.30;48.10;;;;;;1597286;73;681;-71
2024/02/17 05:43:53;;;;;;;;;;;18.30;48.10;;;;;;1594606;73;595;-74
2024/02/17 05:45:55;;;;;;;;;;;18.30;48.10;;;;;;1594507;73;626;-73
2024/02/17 05:47:56;;;;;;;;;;;18.30;48.20;;;;;;1592098;73;1665;-74
2024/02/17 05:49:59;;;;;;;;;;;18.20;48.00;;;;;;1596401;73;1935;-72
2024/02/17 05:52:01;;;;;;;;;;;18.30;48.10;;;;;;1593624;73;763;-73
2024/02/17 05:54:03;;;;;;;;;;;18.30;48.10;;;;;;1589050;73;638;-72
2024/02/17 05:56:05;;;;;;;;;;;18.30;48.10;;;;;;1593911;73;684;-71
2024/02/17 05:58:07;;;;;;;;;;;18.30;48.10;;;;;;1593505;73;783;-74
2024/02/17 06:00:09;;;;;;;;;;;18.30;48.10;;;;;;1597350;73;1328;-73
2024/02/17 06:02:11;;;;;;;;;;;18.30;48.10;;;;;;1594871;73;681;-74
2024/02/17 06:04:14;;;;;;;;;;;18.30;48.00;;;;;;1592317;73;753;-72
2024/02/17 06:06:15;;;;;;;;;;;18.40;48.10;;;;;;1592601;73;707;-72
2024/02/17 06:08:17;;;;;;;;;;;18.30;48.10;;;;;;1593351;73;1175;-74
2024/02/17 06:10:19;;;;;;;;;;;18.30;48.10;;;;;;1594345;73;1942;-70
2024/02/17 06:12:21;;;;;;;;;;;18.30;48.10;;;;;;1594592;73;685;-72
2024/02/17 06:14:23;;;;;;;;;;;18.30;48.10;;;;;;1592473;73;673;-72
2024/02/17 06:16:28;;;;;;;;;;;18.30;48.10;;;;;;1590881;73;852;-74
2024/02/17 06:23:09;;;;;;;;;;;18.20;48.00;;;;;;1587943;73;1626;-74
2024/02/17 06:25:11;;;;;;;;;;;18.30;48.00;;;;;;1593149;73;653;-73
2024/02/17 06:27:13;;;;;;;;;;;18.30;48.10;;;;;;1592387;73;752;-72
2024/02/17 06:29:16;;;;;;;;;;;18.30;48.10;;;;;;1601533;73;1937;-72
2024/02/17 06:31:17;;;;;;;;;;;18.30;48.00;;;;;;1590313;73;676;-75
2024/02/17 06:33:20;;;;;;;;;;;18.30;48.00;;;;;;1594453;73;678;-69
2024/02/17 06:35:22;;;;;;;;;;;18.30;48.00;;;;;;1594727;73;685;-73
2024/02/17 06:37:24;;;;;;;;;;;18.30;48.00;;;;;;1591141;73;808;-74
2024/02/17 06:39:26;;;;;;;;;;;18.30;48.10;;;;;;1591341;73;1253;-73
2024/02/17 06:41:27;;;;;;;;;;;18.30;48.00;;;;;;1595324;73;724;-71
2024/02/17 06:43:30;;;;;;;;;;;18.30;48.00;;;;;;1592842;73;1582;-75
2024/02/17 06:45:32;;;;;;;;;;;18.30;48.10;;;;;;1592719;73;670;-73
2024/02/17 06:47:34;;;;;;;;;;;18.30;48.00;;;;;;1592836;73;772;-72
2024/02/17 06:49:36;;;;;;;;;;;18.30;48.00;;;;;;1593576;73;1947;-73
2024/02/17 06:51:38;;;;;;;;;;;18.30;48.00;;;;;;1594405;73;692;-74
2024/02/17 06:53:40;;;;;;;;;;;18.30;48.10;;;;;;1593893;73;669;-71
2024/02/17 06:55:42;;;;;;;;;;;18.30;48.00;;;;;;1589713;73;681;-70
2024/02/17 06:57:44;;;;;;;;;;;18.30;47.90;;;;;;1593937;73;683;-71
2024/02/17 06:59:46;;;;;;;;;;;18.30;48.00;;;;;;1595420;73;1126;-71
2024/02/17 07:01:48;;;;;;;;;;;18.30;48.00;;;;;;1594299;73;668;-73
2024/02/17 07:03:50;;;;;;;;;;;18.30;48.10;;;;;;1594647;73;663;-73
2024/02/17 07:05:53;;;;;;;;;;;18.30;48.00;;;;;;1594967;73;647;-72
2024/02/17 07:07:54;;;;;;;;;;;18.30;48.00;;;;;;1592951;73;722;-73
2024/02/17 07:09:59;;;;;;;;;;;18.30;47.90;;;;;;1595643;73;1953;-73
2024/02/17 07:12:00;;;;;;;;;;;18.40;48.00;;;;;;1593685;73;1650;-71
2024/02/17 07:14:02;;;;;;;;;;;18.30;48.00;;;;;;1594315;73;574;-72
2024/02/17 07:16:04;;;;;;;;;;;18.30;48.00;;;;;;1595427;73;762;-72
2024/02/17 07:18:05;;;;;;;;;;;18.30;48.00;;;;;;1593420;73;691;-73
2024/02/17 07:20:08;;;;;;;;;;;18.20;47.90;;;;;;1591631;73;1133;-73
2024/02/17 07:22:10;;;;;;;;;;;18.30;48.00;;;;;;1592828;73;811;-71
2024/02/17 07:24:12;;;;;;;;;;;18.30;48.00;;;;;;1594516;73;660;-70
2024/02/17 07:26:13;;;;;;;;;;;18.30;48.00;;;;;;1593056;73;580;-73
2024/02/17 07:28:16;;;;;;;;;;;18.30;48.00;;;;;;1594137;73;1276;-70
2024/02/17 07:30:18;;;;;;;;;;;18.30;48.10;;;;;;1594077;73;1917;-73
2024/02/17 07:32:23;;;;;;;;;;;18.20;48.00;;;;;;1594594;73;677;-69
2024/02/17 07:34:25;;;;;;;;;;;18.30;48.10;;;;;;1594125;73;604;-74
2024/02/17 07:36:27;;;;;;;;;;;18.30;48.00;;;;;;1591463;73;742;-75
2024/02/17 07:38:30;;;;;;;;;;;18.30;48.10;;;;;;1593883;73;1126;-70
2024/02/17 07:40:31;;;;;;;;;;;18.30;48.10;;;;;;1590980;73;1559;-73
2024/02/17 07:42:33;;;;;;;;;;;18.30;48.00;;;;;;1591762;73;714;-72
2024/02/17 07:44:36;;;;;;;;;;;18.30;48.00;;;;;;1594742;73;819;-73
2024/02/17 07:46:37;;;;;;;;;;;18.30;48.10;;;;;;1589904;73;778;-74
2024/02/17 07:48:39;;;;;;;;;;;18.30;48.00;;;;;;1593384;73;1138;-73
2024/02/17 07:50:41;;;;;;;;;;;18.30;48.10;;;;;;1593273;73;1936;-75
2024/02/17 07:52:43;;;;;;;;;;;18.30;48.00;;;;;;1582917;73;649;-72
2024/02/17 07:54:45;;;;;;;;;;;18.30;48.00;;;;;;1594386;73;694;-72
2024/02/17 07:56:47;;;;;;;;;;;18.30;48.00;;;;;;1590212;73;732;-70
2024/02/17 07:58:49;;;;;;;;;;;18.30;48.00;;;;;;1595026;73;1157;-74
2024/02/17 08:00:51;;;;;;;;;;;18.00;47.80;;;;;;1591284;73;773;-73
2024/02/17 08:02:53;;;;;;;;;;;18.30;48.00;;;;;;1598062;73;724;-72
2024/02/17 08:04:56;;;;;;;;;;;18.30;47.90;;;;;;1592528;73;718;-72
2024/02/17 08:06:58;;;;;;;;;;;18.30;48.00;;;;;;1592593;73;658;-72
2024/02/17 08:09:00;;;;;;;;;;;18.30;48.00;;;;;;1598114;72;1149;-72
2024/02/17 08:11:02;;;;;;;;;;;18.30;47.90;;;;;;1595776;73;1937;-71
2024/02/17 08:13:04;;;;;;;;;;;18.30;47.90;;;;;;1591907;73;751;-72
2024/02/17 08:15:06;;;;;;;;;;;18.30;47.90;;;;;;1589553;73;702;-71
2024/02/17 08:17:08;;;;;;;;;;;18.30;48.00;;;;;;1599391;73;686;-73
2024/02/17 08:19:10;;;;;;;;;;;18.30;47.90;;;;;;1593614;73;1128;-73
2024/02/17 08:21:13;;;;;;;;;;;18.30;48.00;;;;;;1597258;73;628;-73
2024/02/17 08:23:14;;;;;;;;;;;18.30;48.00;;;;;;1601546;73;758;-71
2024/02/17 08:25:16;;;;;;;;;;;18.30;48.00;;;;;;1594933;73;800;-74
2024/02/17 08:27:19;;;;;;;;;;;18.20;47.90;;;;;;1594968;73;666;-75
2024/02/17 08:29:22;;;;;;;;;;;18.30;47.90;;;;;;1592788;73;1088;-73
2024/02/17 08:31:24;;;;;;;;;;;18.30;48.00;;;;;;1591906;73;1920;-73
2024/02/17 08:33:26;;;;;;;;;;;18.30;48.00;;;;;;1591735;73;554;-73
2024/02/17 08:35:27;;;;;;;;;;;18.30;47.90;;;;;;1593804;73;1482;-72
2024/02/17 08:37:29;;;;;;;;;;;18.30;47.90;;;;;;1592987;73;683;-71
2024/02/17 08:39:31;;;;;;;;;;;18.30;48.00;;;;;;1595378;73;1082;-72
2024/02/17 08:41:33;;;;;;;;;;;18.30;47.90;;;;;;1595064;73;706;-75
2024/02/17 08:43:35;;;;;;;;;;;18.30;47.90;;;;;;1593557;73;593;-72
2024/02/17 08:45:37;;;;;;;;;;;18.30;47.90;;;;;;1594382;73;663;-73
2024/02/17 08:47:39;;;;;;;;;;;18.30;48.00;;;;;;1594416;73;564;-75
2024/02/17 08:49:41;;;;;;;;;;;18.30;48.00;;;;;;1600489;73;1104;-72
2024/02/17 08:51:43;;;;;;;;;;;18.30;47.90;;;;;;1591361;73;1941;-74
2024/02/17 08:53:44;;;;;;;;;;;18.30;47.90;;;;;;1594568;73;518;-75
2024/02/17 08:55:46;;;;;;;;;;;18.30;47.90;;;;;;1594976;73;658;-73
2024/02/17 08:57:48;;;;;;;;;;;18.30;47.90;;;;;;1591972;73;644;-73
2024/02/17 08:59:50;;;;;;;;;;;18.30;47.90;;;;;;1594648;72;1145;-72
2024/02/17 09:01:52;;;;;;;;;;;18.30;47.90;;;;;;1585450;73;652;-75
2024/02/17 09:03:54;;;;;;;;;;;18.30;47.90;;;;;;1597220;73;657;-74
2024/02/17 09:05:56;;;;;;;;;;;18.30;47.90;;;;;;1587188;73;661;-75
2024/02/17 09:07:58;;;;;;;;;;;18.30;47.90;;;;;;1596740;73;717;-73
2024/02/17 09:09:59;;;;;;;;;;;18.30;47.80;;;;;;1594686;73;1125;-75
2024/02/17 09:12:01;;;;;;;;;;;18.30;47.90;;;;;;1594468;73;1946;-76
2024/02/17 09:14:03;;;;;;;;;;;18.30;47.90;;;;;;1592299;73;693;-74
2024/02/17 09:16:05;;;;;;;;;;;18.30;47.90;;;;;;1594655;73;672;-75
2024/02/17 09:18:08;;;;;;;;;;;18.30;47.80;;;;;;1594773;73;671;-75
2024/02/17 09:20:10;;;;;;;;;;;18.30;47.80;;;;;;1596344;73;1131;-74
2024/02/17 09:22:12;;;;;;;;;;;18.30;47.80;;;;;;1593387;73;657;-74
2024/02/17 09:24:18;;;;;;;;;;;18.30;47.90;;;;;;1597584;73;661;-74
2024/02/17 09:26:17;;;;;;;;;;;18.30;47.80;;;;;;1592889;73;1502;-74
2024/02/17 09:28:19;;;;;;;;;;;18.30;47.80;;;;;;1594807;73;1113;-73
2024/02/17 09:30:21;;;;;;;;;;;18.30;47.80;;;;;;1591447;73;1935;-74
2024/02/17 09:32:23;;;;;;;;;;;18.30;47.80;;;;;;1590864;73;1538;-75
2024/02/17 09:34:26;;;;;;;;;;;18.30;47.80;;;;;;1592854;73;660;-74
2024/02/17 09:36:29;;;;;;;;;;;18.30;47.80;;;;;;1592140;73;731;-75
2024/02/17 09:38:31;;;;;;;;;;;18.30;47.80;;;;;;1594509;73;1122;-72
2024/02/17 09:40:33;;;;;;;;;;;18.30;47.90;;;;;;1593251;73;689;-74
2024/02/17 09:42:35;;;;;;;;;;;18.30;47.90;;;;;;1594845;73;566;-77
2024/02/17 09:44:40;;;;;;;;;;;18.30;47.80;;;;;;1594219;73;540;-75
2024/02/17 09:46:41;;;;;;;;;;;18.30;47.80;;;;;;1594404;73;2055;-71
2024/02/17 09:48:43;;;;;;;;;;;18.30;47.80;;;;;;1590772;73;1146;-75
2024/02/17 09:50:49;;;;;;;;;;;18.30;47.80;;;;;;1595090;73;1929;-74
2024/02/17 09:52:48;;;;;;;;;;;18.20;47.80;;;;;;1594813;73;1449;-75
2024/02/17 09:54:50;;;;;;;;;;;18.30;47.80;;;;;;1594099;73;781;-74
2024/02/17 09:56:52;;;;;;;;;;;18.30;47.80;;;;;;1593659;73;596;-71
2024/02/17 09:58:54;;;;;;;;;;;18.30;47.80;;;;;;1594643;72;1154;-74
2024/02/17 10:00:57;;;;;;;;;;;18.30;47.80;;;;;;1593372;73;776;-76
2024/02/17 10:02:59;;;;;;;;;;;18.30;47.80;;;;;;1593963;73;718;-75
2024/02/17 10:05:01;;;;;;;;;;;18.30;47.70;;;;;;1594990;73;644;-74
2024/02/17 10:07:03;;;;;;;;;;;18.30;47.80;;;;;;1593646;73;672;-73
2024/02/17 10:09:06;;;;;;;;;;;18.30;47.80;;;;;;1592569;73;1153;-74
2024/02/17 10:11:12;;;;;;;;;;;18.30;47.70;;;;;;1594512;73;1920;-74
2024/02/17 10:13:20;;;;;;;;;;;18.30;47.70;;;;;;1590833;73;1178;-74
2024/02/17 10:15:19;;;;;;;;;;;18.30;47.70;;;;;;1598240;73;1579;-73
2024/02/17 10:17:22;;;;;;;;;;;18.30;47.80;;;;;;1594328;73;723;-74
2024/02/17 10:19:24;;;;;;;;;;;18.20;47.70;;;;;;1593639;73;1114;-72
2024/02/17 10:21:26;;;;;;;;;;;18.30;47.80;;;;;;1590415;73;700;-71
2024/02/17 10:23:28;;;;;;;;;;;18.30;47.80;;;;;;1593979;73;712;-75
2024/02/17 10:25:30;;;;;;;;;;;18.30;47.80;;;;;;1594608;73;607;-74
2024/02/17 10:27:32;;;;;;;;;;;18.30;47.80;;;;;;1594183;73;794;-75
2024/02/17 10:29:34;;;;;;;;;;;18.30;47.80;;;;;;1594927;73;1787;-74
2024/02/17 10:31:36;;;;;;;;;;;18.20;47.60;;;;;;1596247;73;1933;-75
2024/02/17 10:33:38;;;;;;;;;;;18.20;47.70;;;;;;1594058;73;649;-76
2024/02/17 10:35:42;;;;;;;;;;;18.20;47.70;;;;;;1592184;73;694;-74
2024/02/17 10:37:43;;;;;;;;;;;18.20;47.60;;;;;;1591779;73;1035;-73
2024/02/17 10:39:45;;;;;;;;;;;18.30;47.80;;;;;;1595136;73;1120;-71
2024/02/17 10:41:48;;;;;;;;;;;18.30;47.70;;;;;;1594890;73;679;-77
2024/02/17 10:43:51;;;;;;;;;;;18.30;47.70;;;;;;1592113;73;703;-73
2024/02/17 10:45:55;;;;;;;;;;;18.20;47.60;;;;;;1595675;73;668;-73
2024/02/17 10:48:02;;;;;;;;;;;18.30;47.70;;;;;;1598112;73;690;-74
2024/02/17 10:50:06;;;;;;;;;;;18.30;47.70;;;;;;1596711;73;1071;-72
2024/02/17 10:52:08;;;;;;;;;;;18.30;47.70;;;;;;1591172;73;1929;-77
2024/02/17 10:54:12;;;;;;;;;;;18.30;47.70;;;;;;1594026;73;691;-76
2024/02/17 10:56:17;;;;;;;;;;;18.30;47.80;;;;;;1592401;73;671;-74
2024/02/17 10:58:19;;;;;;;;;;;18.30;47.70;;;;;;1591060;73;1172;-72
2024/02/17 11:00:21;;;;;;;;;;;18.30;47.70;;;;;;1594603;73;828;-72
2024/02/17 11:02:24;;;;;;;;;;;18.30;47.70;;;;;;1594236;73;804;-74
2024/02/17 11:04:26;;;;;;;;;;;18.30;47.70;;;;;;1591635;73;641;-73
2024/02/17 11:06:28;;;;;;;;;;;18.40;47.70;;;;;;1590248;73;627;-72
2024/02/17 11:08:32;;;;;;;;;;;18.20;47.60;;;;;;1597580;72;1168;-75
2024/02/17 11:10:33;;;;;;;;;;;18.40;47.70;;;;;;1597081;73;1130;-74
2024/02/17 11:12:36;;;;;;;;;;;18.30;47.70;;;;;;1591967;73;1933;-75
2024/02/17 11:14:43;;;;;;;;;;;18.30;47.70;;;;;;1599708;73;693;-73
2024/02/17 11:16:41;;;;;;;;;;;18.20;47.60;;;;;;1593407;73;1627;-72
2024/02/17 11:18:45;;;;;;;;;;;18.30;47.70;;;;;;1592938;73;1119;-71
2024/02/17 11:20:47;;;;;;;;;;;18.30;47.70;;;;;;1598169;73;600;-75
2024/02/17 11:22:51;;;;;;;;;;;18.30;47.70;;;;;;1588458;73;769;-71
2024/02/17 11:24:54;;;;;;;;;;;18.30;47.70;;;;;;1590720;73;1610;-74
2024/02/17 11:26:56;;;;;;;;;;;18.30;47.80;;;;;;1589569;73;711;-74
2024/02/17 11:28:58;;;;;;;;;;;18.30;47.70;;;;;;1592030;73;1119;-76
2024/02/17 11:31:00;;;;;;;;;;;18.30;47.70;;;;;;1592029;73;678;-74
2024/02/17 11:33:03;;;;;;;;;;;18.30;47.70;;;;;;1593925;73;1928;-74
2024/02/17 11:35:08;;;;;;;;;;;18.30;47.70;;;;;;1588719;73;705;-74
2024/02/17 11:37:10;;;;;;;;;;;18.30;47.70;;;;;;1594012;73;675;-74
2024/02/17 11:39:12;;;;;;;;;;;18.30;47.70;;;;;;1592475;73;1119;-75
2024/02/17 11:41:15;;;;;;;;;;;18.30;47.70;;;;;;1590908;73;741;-73
2024/02/17 11:43:17;;;;;;;;;;;18.30;47.70;;;;;;1593703;73;652;-75
2024/02/17 11:45:19;;;;;;;;;;;18.30;47.70;;;;;;1594918;73;749;-75
2024/02/17 11:47:21;;;;;;;;;;;18.30;47.70;;;;;;1593773;73;774;-75
2024/02/17 11:49:37;;;;;;;;;;;18.30;47.70;;;;;;1594268;73;1123;-74
2024/02/17 11:51:35;;;;;;;;;;;18.30;47.70;;;;;;1593813;73;1922;-71
2024/02/17 11:53:39;;;;;;;;;;;18.30;47.70;;;;;;1594874;73;684;-76
2024/02/17 11:55:41;;;;;;;;;;;18.30;47.70;;;;;;1593034;73;1666;-73
2024/02/17 11:57:43;;;;;;;;;;;18.30;47.70;;;;;;1592816;73;794;-74
2024/02/17 11:59:46;;;;;;;;;;;18.30;47.70;;;;;;1595720;73;1119;-75
2024/02/17 12:01:51;;;;;;;;;;;18.20;47.60;;;;;;1593426;73;815;-75
2024/02/17 12:03:55;;;;;;;;;;;18.30;47.70;;;;;;1597826;73;642;-76
2024/02/17 12:06:00;;;;;;;;;;;18.30;47.70;;;;;;1603034;73;680;-74
2024/02/17 12:08:01;;;;;;;;;;;18.30;47.70;;;;;;1593070;73;1757;-74
2024/02/17 12:10:03;;;;;;;;;;;18.30;47.70;;;;;;1593035;73;1064;-74
2024/02/17 12:12:05;;;;;;;;;;;18.30;47.70;;;;;;1596511;73;1934;-76
2024/02/17 12:14:09;;;;;;;;;;;18.40;47.70;;;;;;1594623;73;665;-75